createdAt,value
2022-11-16T00:00:50.947Z,15.47
2022-11-16T00:03:18.042Z,15.34
2022-11-16T00:05:45.137Z,15.39
2022-11-16T00:08:12.198Z,15.38
2022-11-16T00:10:39.283Z,15.34
2022-11-16T00:13:06.363Z,15.32
2022-11-16T00:15:33.441Z,15.30
2022-11-16T00:18:00.575Z,15.27
2022-11-16T00:20:27.686Z,15.26
2022-11-16T00:22:54.749Z,15.24
2022-11-16T00:25:22.404Z,15.23
2022-11-16T00:27:49.564Z,15.24
2022-11-16T00:30:16.639Z,15.24
2022-11-16T00:32:43.710Z,15.21
2022-11-16T00:35:10.828Z,15.17
2022-11-16T00:37:37.949Z,15.11
2022-11-16T00:40:05.102Z,15.06
2022-11-16T00:42:32.461Z,15.03
2022-11-16T00:44:59.548Z,14.98
2022-11-16T00:47:27.331Z,14.96
2022-11-16T00:49:54.443Z,14.94
2022-11-16T00:52:21.535Z,14.91
2022-11-16T00:54:48.650Z,14.91
2022-11-16T00:57:15.754Z,14.90
2022-11-16T00:59:42.832Z,14.88
2022-11-16T01:02:09.902Z,14.88
2022-11-16T01:04:36.975Z,14.89
2022-11-16T01:07:04.118Z,14.88
2022-11-16T01:09:31.230Z,14.89
2022-11-16T01:12:10.664Z,14.90
2022-11-16T01:14:37.825Z,14.92
2022-11-16T01:17:04.918Z,14.93
2022-11-16T01:19:31.996Z,14.91
2022-11-16T01:21:59.145Z,14.92
2022-11-16T01:24:26.281Z,14.92
2022-11-16T01:26:56.920Z,14.93
2022-11-16T01:29:24.026Z,14.93
2022-11-16T01:31:51.129Z,14.92
2022-11-16T01:34:18.369Z,14.93
2022-11-16T01:36:45.484Z,14.93
2022-11-16T01:39:12.607Z,14.93
2022-11-16T01:41:39.686Z,14.93
2022-11-16T01:44:06.768Z,14.94
2022-11-16T01:46:33.845Z,14.93
2022-11-16T01:49:00.968Z,14.91
2022-11-16T01:51:28.050Z,14.94
2022-11-16T01:53:55.156Z,14.94
2022-11-16T01:56:22.287Z,14.90
2022-11-16T01:58:49.354Z,14.91
2022-11-16T02:01:16.469Z,14.91
2022-11-16T02:03:43.627Z,14.92
2022-11-16T02:06:10.722Z,14.93
2022-11-16T02:08:56.622Z,14.93
2022-11-16T02:11:23.717Z,14.91
2022-11-16T02:13:51.572Z,14.92
2022-11-16T02:16:18.741Z,14.88
2022-11-16T02:18:45.815Z,14.91
2022-11-16T02:21:12.872Z,14.93
2022-11-16T02:23:40.053Z,14.89
2022-11-16T02:26:07.118Z,14.91
2022-11-16T02:28:34.422Z,14.90
2022-11-16T02:31:01.738Z,14.89
2022-11-16T02:33:28.813Z,14.88
2022-11-16T02:35:55.962Z,14.87
2022-11-16T02:38:23.027Z,14.89
2022-11-16T02:40:50.110Z,14.91
2022-11-16T02:43:17.245Z,14.91
2022-11-16T02:45:44.314Z,14.89
2022-11-16T02:48:11.370Z,14.88
2022-11-16T02:50:38.460Z,14.90
2022-11-16T02:53:05.534Z,14.89
2022-11-16T02:55:32.617Z,14.88
2022-11-16T02:57:59.702Z,14.85
2022-11-16T03:00:26.778Z,14.87
2022-11-16T03:02:53.863Z,14.88
2022-11-16T03:05:20.980Z,14.89
2022-11-16T03:07:48.086Z,14.87
2022-11-16T03:10:35.151Z,14.87
2022-11-16T03:13:02.235Z,14.89
2022-11-16T03:15:29.323Z,14.90
2022-11-16T03:17:56.414Z,14.88
2022-11-16T03:20:23.520Z,14.86
2022-11-16T03:22:50.610Z,14.87
2022-11-16T03:25:17.690Z,14.87
2022-11-16T03:27:45.005Z,14.84
2022-11-16T03:30:12.092Z,14.88
2022-11-16T03:32:39.263Z,14.88
2022-11-16T03:35:06.389Z,14.88
2022-11-16T03:37:33.505Z,14.88
2022-11-16T03:40:01.131Z,14.88
2022-11-16T03:42:28.207Z,14.89
2022-11-16T03:44:55.278Z,14.87
2022-11-16T03:47:22.379Z,14.88
2022-11-16T03:49:49.633Z,14.89
2022-11-16T03:52:16.691Z,14.87
2022-11-16T03:54:43.800Z,14.88
2022-11-16T03:57:18.187Z,14.90
2022-11-16T03:59:45.378Z,14.88
2022-11-16T04:02:12.480Z,14.89
2022-11-16T04:04:58.211Z,14.88
2022-11-16T04:07:44.133Z,14.91
2022-11-16T04:10:30.014Z,14.87
2022-11-16T04:13:16.027Z,14.88
2022-11-16T04:16:01.513Z,14.89
2022-11-16T04:18:47.477Z,14.88
2022-11-16T04:21:33.067Z,14.88
2022-11-16T04:24:12.200Z,14.89
2022-11-16T04:26:58.055Z,14.90
2022-11-16T04:29:25.113Z,14.90
2022-11-16T04:32:10.755Z,14.91
2022-11-16T04:34:56.698Z,14.90
2022-11-16T04:37:42.595Z,14.91
2022-11-16T04:40:09.739Z,14.90
2022-11-16T04:42:36.826Z,14.91
2022-11-16T04:45:22.305Z,14.90
2022-11-16T04:47:49.592Z,14.93
2022-11-16T04:50:16.653Z,14.91
2022-11-16T04:52:43.754Z,14.93
2022-11-16T04:55:10.846Z,14.91
2022-11-16T04:57:37.916Z,14.90
2022-11-16T05:00:04.978Z,14.91
2022-11-16T05:02:32.088Z,14.93
2022-11-16T05:04:59.206Z,14.92
2022-11-16T05:07:26.387Z,14.90
2022-11-16T05:09:53.468Z,14.91
2022-11-16T05:12:20.601Z,14.92
2022-11-16T05:14:47.672Z,14.94
2022-11-16T05:17:14.761Z,14.93
2022-11-16T05:20:00.673Z,14.93
2022-11-16T05:22:27.751Z,14.92
2022-11-16T05:24:54.858Z,14.94
2022-11-16T05:27:21.929Z,14.93
2022-11-16T05:29:51.848Z,14.96
2022-11-16T05:32:18.916Z,14.93
2022-11-16T05:34:46.061Z,14.93
2022-11-16T05:37:13.212Z,14.93
2022-11-16T05:39:40.368Z,14.93
2022-11-16T05:42:07.662Z,14.94
2022-11-16T05:44:34.731Z,14.93
2022-11-16T05:47:03.146Z,14.95
2022-11-16T05:49:30.221Z,14.94
2022-11-16T05:51:57.329Z,14.96
2022-11-16T05:54:27.588Z,14.97
2022-11-16T05:56:54.694Z,14.94
2022-11-16T05:59:21.933Z,14.97
2022-11-16T06:01:49.083Z,14.97
2022-11-16T06:04:16.214Z,14.95
2022-11-16T06:06:43.439Z,14.95
2022-11-16T06:09:10.549Z,14.95
2022-11-16T06:11:38.242Z,14.97
2022-11-16T06:14:05.426Z,14.97
2022-11-16T06:16:32.509Z,14.98
2022-11-16T06:18:59.601Z,14.96
2022-11-16T06:21:26.720Z,14.97
2022-11-16T06:23:53.893Z,14.95
2022-11-16T06:26:20.996Z,14.97
2022-11-16T06:28:48.098Z,14.97
2022-11-16T06:31:15.182Z,14.97
2022-11-16T06:33:42.258Z,14.98
2022-11-16T06:36:09.343Z,14.97
2022-11-16T06:38:36.708Z,14.95
2022-11-16T06:41:04.149Z,14.96
2022-11-16T06:43:31.333Z,14.98
2022-11-16T06:45:58.643Z,14.98
2022-11-16T06:48:25.728Z,14.98
2022-11-16T06:50:52.810Z,15.00
2022-11-16T06:53:21.621Z,15.00
2022-11-16T06:55:51.779Z,15.01
2022-11-16T06:58:18.863Z,15.00
2022-11-16T07:00:45.926Z,14.99
2022-11-16T07:03:13.064Z,14.98
2022-11-16T07:05:40.775Z,14.99
2022-11-16T07:08:08.221Z,15.00
2022-11-16T07:10:35.455Z,15.02
2022-11-16T07:13:03.166Z,15.00
2022-11-16T07:15:30.291Z,15.00
2022-11-16T07:17:57.365Z,14.98
2022-11-16T07:20:24.519Z,14.98
2022-11-16T07:22:51.609Z,15.00
2022-11-16T07:25:18.739Z,15.01
2022-11-16T07:27:45.826Z,15.01
2022-11-16T07:30:12.894Z,15.01
2022-11-16T07:32:58.922Z,15.03
2022-11-16T07:35:44.890Z,15.02
2022-11-16T07:38:30.813Z,15.02
2022-11-16T07:41:28.148Z,15.01
2022-11-16T07:44:14.144Z,15.04
2022-11-16T07:46:59.821Z,15.00
2022-11-16T07:49:26.890Z,15.02
2022-11-16T07:51:53.954Z,15.05
2022-11-16T07:54:21.006Z,15.06
2022-11-16T07:56:48.087Z,15.06
2022-11-16T07:59:15.211Z,15.04
2022-11-16T08:01:42.368Z,15.04
2022-11-16T08:04:09.470Z,15.04
2022-11-16T08:06:36.865Z,15.06
2022-11-16T08:09:04.063Z,15.07
2022-11-16T08:11:31.165Z,15.06
2022-11-16T08:13:58.363Z,15.06
2022-11-16T08:16:28.410Z,15.06
2022-11-16T08:18:55.521Z,15.07
2022-11-16T08:21:22.603Z,15.09
2022-11-16T08:23:53.842Z,15.07
2022-11-16T08:26:23.998Z,15.06
2022-11-16T08:28:51.294Z,15.09
2022-11-16T08:31:18.654Z,15.09
2022-11-16T08:33:45.743Z,15.10
2022-11-16T08:36:17.192Z,15.07
2022-11-16T08:38:44.640Z,15.09
2022-11-16T08:41:12.053Z,15.08
2022-11-16T08:43:41.830Z,15.10
2022-11-16T08:46:08.923Z,15.10
2022-11-16T08:48:36.505Z,15.12
2022-11-16T08:51:20.616Z,15.11
2022-11-16T08:53:49.136Z,15.12
2022-11-16T08:56:17.147Z,15.09
2022-11-16T08:58:46.410Z,15.11
2022-11-16T09:01:13.947Z,15.11
2022-11-16T09:03:41.159Z,15.14
2022-11-16T09:06:08.278Z,15.13
2022-11-16T09:08:35.630Z,15.11
2022-11-16T09:11:02.967Z,15.06
2022-11-16T09:13:30.053Z,15.07
2022-11-16T09:15:57.465Z,15.09
2022-11-16T09:18:24.621Z,15.11
2022-11-16T09:20:51.729Z,15.14
2022-11-16T09:23:24.860Z,15.15
2022-11-16T09:25:52.510Z,15.18
2022-11-16T09:28:19.748Z,15.18
2022-11-16T09:30:46.807Z,15.18
2022-11-16T09:33:13.911Z,15.22
2022-11-16T09:35:41.010Z,15.13
2022-11-16T09:38:09.960Z,15.19
2022-11-16T09:40:37.085Z,15.23
2022-11-16T09:43:04.223Z,15.24
2022-11-16T09:45:31.299Z,15.23
2022-11-16T09:47:59.476Z,15.22
2022-11-16T09:50:26.584Z,15.21
2022-11-16T09:52:53.682Z,15.22
2022-11-16T09:55:20.808Z,15.20
2022-11-16T09:57:47.924Z,15.28
2022-11-16T10:00:15.510Z,15.40
2022-11-16T10:02:42.642Z,15.38
2022-11-16T10:05:10.733Z,15.42
2022-11-16T10:07:37.989Z,15.48
2022-11-16T10:10:05.231Z,15.54
2022-11-16T10:12:32.565Z,15.59
2022-11-16T10:15:01.817Z,15.61
2022-11-16T10:17:29.078Z,15.59
2022-11-16T10:19:56.267Z,15.60
2022-11-16T10:22:23.366Z,15.60
2022-11-16T10:24:51.077Z,15.62
2022-11-16T10:27:22.043Z,15.60
2022-11-16T10:29:49.422Z,15.64
2022-11-16T10:32:16.522Z,15.59
2022-11-16T10:34:43.978Z,15.60
2022-11-16T10:37:11.045Z,15.59
2022-11-16T10:39:41.007Z,15.56
2022-11-16T10:42:08.174Z,15.56
2022-11-16T10:44:35.273Z,15.63
2022-11-16T10:47:02.365Z,15.61
2022-11-16T10:49:29.440Z,15.59
2022-11-16T10:51:56.556Z,15.61
2022-11-16T10:54:23.641Z,15.59
2022-11-16T10:56:50.709Z,15.61
2022-11-16T10:59:17.790Z,15.62
2022-11-16T11:01:44.927Z,15.61
2022-11-16T11:04:12.158Z,15.63
2022-11-16T11:06:39.337Z,15.62
2022-11-16T11:09:06.414Z,15.64
2022-11-16T11:11:52.460Z,15.67
2022-11-16T11:14:19.478Z,15.66
2022-11-16T11:16:46.561Z,15.67
2022-11-16T11:19:13.635Z,15.69
2022-11-16T11:21:40.751Z,15.70
2022-11-16T11:24:42.281Z,15.69
2022-11-16T11:26:54.892Z,15.71
2022-11-16T11:29:22.028Z,15.72
2022-11-16T11:31:49.178Z,15.73
2022-11-16T11:34:16.291Z,15.73
2022-11-16T11:36:43.442Z,15.76
2022-11-16T11:39:10.529Z,15.74
2022-11-16T11:41:37.725Z,15.74
2022-11-16T11:44:04.930Z,15.72
2022-11-16T11:46:59.761Z,15.72
2022-11-16T11:49:19.119Z,15.74
2022-11-16T11:51:47.017Z,15.75
2022-11-16T11:54:14.094Z,15.76
2022-11-16T11:56:41.172Z,15.74
2022-11-16T11:59:08.226Z,15.72
2022-11-16T12:01:35.377Z,15.73
2022-11-16T12:04:02.443Z,15.72
2022-11-16T12:06:29.550Z,15.72
2022-11-16T12:08:56.640Z,15.73
2022-11-16T12:11:23.705Z,15.70
2022-11-16T12:13:51.239Z,15.72
2022-11-16T12:16:18.310Z,15.76
2022-11-16T12:18:45.377Z,15.79
2022-11-16T12:21:13.241Z,15.79
2022-11-16T12:23:40.737Z,15.76
2022-11-16T12:26:07.796Z,15.81
2022-11-16T12:28:35.052Z,15.75
2022-11-16T12:31:02.158Z,15.75
2022-11-16T12:33:29.350Z,15.76
2022-11-16T12:35:56.461Z,15.77
2022-11-16T12:38:26.514Z,15.80
2022-11-16T12:40:53.704Z,15.65
2022-11-16T12:43:20.809Z,15.59
2022-11-16T12:45:47.993Z,15.57
2022-11-16T12:48:15.665Z,15.54
2022-11-16T12:50:42.959Z,15.54
2022-11-16T12:53:10.547Z,15.55
2022-11-16T12:55:37.613Z,15.60
2022-11-16T12:58:04.704Z,15.68
2022-11-16T13:00:31.824Z,15.63
2022-11-16T13:02:58.947Z,15.59
2022-11-16T13:05:26.021Z,15.61
2022-11-16T13:07:54.848Z,15.60
2022-11-16T13:10:22.543Z,15.54
2022-11-16T13:12:52.683Z,15.50
2022-11-16T13:15:22.975Z,15.50
2022-11-16T13:17:50.056Z,15.47
2022-11-16T13:20:17.186Z,15.47
2022-11-16T13:22:44.941Z,15.46
2022-11-16T13:25:12.052Z,15.46
2022-11-16T13:27:39.443Z,15.44
2022-11-16T13:30:06.538Z,15.46
2022-11-16T13:32:36.648Z,15.47
2022-11-16T13:35:03.718Z,15.47
2022-11-16T13:37:30.792Z,15.41
2022-11-16T13:40:01.991Z,15.40
2022-11-16T13:42:30.163Z,15.39
2022-11-16T13:44:57.261Z,15.35
2022-11-16T13:47:24.844Z,15.39
2022-11-16T13:49:51.916Z,15.33
2022-11-16T13:52:24.155Z,15.32
2022-11-16T13:54:56.960Z,15.36
2022-11-16T13:57:24.574Z,15.39
2022-11-16T13:59:51.652Z,15.42
2022-11-16T14:02:18.721Z,15.41
2022-11-16T14:04:45.831Z,15.38
2022-11-16T14:07:12.982Z,15.37
2022-11-16T14:09:40.088Z,15.41
2022-11-16T14:12:07.158Z,15.39
2022-11-16T14:14:34.305Z,15.40
2022-11-16T14:17:01.397Z,15.42
2022-11-16T14:19:28.517Z,15.41
2022-11-16T14:21:55.604Z,15.39
2022-11-16T14:24:22.675Z,15.44
2022-11-16T14:26:49.760Z,15.48
2022-11-16T14:29:16.851Z,15.49
2022-11-16T14:31:44.004Z,15.54
2022-11-16T14:34:11.082Z,15.60
2022-11-16T14:36:38.271Z,15.63
2022-11-16T14:39:05.341Z,15.62
2022-11-16T14:41:32.444Z,15.55
2022-11-16T14:43:59.545Z,15.52
2022-11-16T14:46:26.631Z,15.51
2022-11-16T14:48:53.699Z,15.47
2022-11-16T14:51:20.755Z,15.52
2022-11-16T14:53:47.842Z,15.49
2022-11-16T14:56:15.080Z,15.45
2022-11-16T14:58:42.209Z,15.42
2022-11-16T15:01:09.361Z,15.38
2022-11-16T15:03:37.084Z,15.36
2022-11-16T15:06:04.515Z,15.32
2022-11-16T15:08:31.825Z,15.34
2022-11-16T15:10:58.906Z,15.36
2022-11-16T15:13:26.052Z,15.32
2022-11-16T15:15:54.536Z,15.32
2022-11-16T15:18:23.236Z,15.36
2022-11-16T15:20:50.495Z,15.38
2022-11-16T15:23:17.587Z,15.38
2022-11-16T15:25:45.037Z,15.39
2022-11-16T15:28:12.097Z,15.38
2022-11-16T15:30:40.369Z,15.38
2022-11-16T15:33:07.453Z,15.33
2022-11-16T15:35:34.515Z,15.34
2022-11-16T15:38:01.591Z,15.32
2022-11-16T15:40:28.814Z,15.31
2022-11-16T15:42:55.963Z,15.30
2022-11-16T15:45:23.077Z,15.30
2022-11-16T15:47:50.239Z,15.30
2022-11-16T15:50:18.222Z,15.30
2022-11-16T15:52:45.379Z,15.34
2022-11-16T15:55:12.468Z,15.32
2022-11-16T15:57:44.039Z,15.37
2022-11-16T16:00:13.583Z,15.46
2022-11-16T16:02:40.747Z,15.45
2022-11-16T16:05:07.813Z,15.41
2022-11-16T16:07:34.949Z,15.41
2022-11-16T16:10:02.106Z,15.42
2022-11-16T16:12:29.209Z,15.41
2022-11-16T16:14:56.283Z,15.40
2022-11-16T16:17:23.403Z,15.41
2022-11-16T16:19:50.954Z,15.40
2022-11-16T16:22:18.396Z,15.41
2022-11-16T16:24:45.644Z,15.41
2022-11-16T16:27:12.826Z,15.41
2022-11-16T16:29:39.973Z,15.42
2022-11-16T16:32:07.066Z,15.41
2022-11-16T16:34:37.781Z,15.42
2022-11-16T16:37:06.428Z,15.43
2022-11-16T16:39:36.067Z,15.43
2022-11-16T16:42:03.178Z,15.45
2022-11-16T16:44:30.280Z,15.44
2022-11-16T16:46:57.442Z,15.44
2022-11-16T16:49:24.561Z,15.45
2022-11-16T16:51:51.638Z,15.43
2022-11-16T16:54:18.704Z,15.42
2022-11-16T16:56:45.782Z,15.43
2022-11-16T16:59:12.884Z,15.43
2022-11-16T17:01:39.951Z,15.45
2022-11-16T17:04:07.135Z,15.45
2022-11-16T17:06:34.221Z,15.45
2022-11-16T17:09:01.299Z,15.45
2022-11-16T17:11:28.946Z,15.45
2022-11-16T17:13:56.011Z,15.44
2022-11-16T17:16:23.257Z,15.45
2022-11-16T17:18:50.333Z,15.45
2022-11-16T17:21:17.397Z,15.45
2022-11-16T17:23:44.486Z,15.46
2022-11-16T17:26:11.565Z,15.45
2022-11-16T17:28:38.743Z,15.45
2022-11-16T17:31:05.869Z,15.46
2022-11-16T17:33:33.331Z,15.45
2022-11-16T17:36:02.907Z,15.45
2022-11-16T17:38:29.987Z,15.46
2022-11-16T17:40:57.118Z,15.45
2022-11-16T17:43:24.242Z,15.46
2022-11-16T17:45:51.316Z,15.45
2022-11-16T17:48:18.478Z,15.45
2022-11-16T17:50:45.600Z,15.43
2022-11-16T17:53:12.700Z,15.44
2022-11-16T17:55:39.762Z,15.44
2022-11-16T17:58:06.936Z,15.42
2022-11-16T18:00:34.017Z,15.43
2022-11-16T18:03:01.489Z,15.42
2022-11-16T18:05:28.624Z,15.43
2022-11-16T18:07:55.742Z,15.35
2022-11-16T18:10:22.823Z,15.36
2022-11-16T18:12:49.907Z,15.36
2022-11-16T18:15:33.164Z,15.34
2022-11-16T18:18:02.483Z,15.32
2022-11-16T18:20:29.601Z,15.31
2022-11-16T18:22:56.688Z,15.30
2022-11-16T18:25:23.755Z,15.30
2022-11-16T18:27:50.867Z,15.33
2022-11-16T18:30:17.934Z,15.30
2022-11-16T18:32:45.029Z,15.32
2022-11-16T18:35:12.112Z,15.32
2022-11-16T18:37:39.250Z,15.30
2022-11-16T18:40:06.393Z,15.29
2022-11-16T18:42:33.569Z,15.30
2022-11-16T18:45:00.662Z,15.30
2022-11-16T18:47:27.799Z,15.28
2022-11-16T18:49:54.954Z,15.24
2022-11-16T18:52:22.095Z,15.28
2022-11-16T18:54:49.229Z,15.29
2022-11-16T18:57:16.343Z,15.29
2022-11-16T18:59:43.453Z,15.26
2022-11-16T19:02:10.564Z,15.25
2022-11-16T19:04:40.060Z,15.28
2022-11-16T19:07:07.835Z,15.26
2022-11-16T19:09:35.143Z,15.23
2022-11-16T19:12:02.274Z,15.26
2022-11-16T19:14:29.387Z,15.25
2022-11-16T19:16:57.405Z,15.28
2022-11-16T19:19:25.416Z,15.27
2022-11-16T19:21:52.600Z,15.27
2022-11-16T19:24:19.841Z,15.26
2022-11-16T19:26:47.106Z,15.28
2022-11-16T19:29:14.306Z,15.27
2022-11-16T19:31:41.505Z,15.30
2022-11-16T19:34:08.763Z,15.30
2022-11-16T19:36:36.121Z,15.27
2022-11-16T19:39:03.461Z,15.26
2022-11-16T19:41:30.699Z,15.27
2022-11-16T19:43:59.782Z,15.27
2022-11-16T19:46:27.069Z,15.28
2022-11-16T19:48:54.363Z,15.26
2022-11-16T19:51:21.612Z,15.25
2022-11-16T19:53:48.970Z,15.27
2022-11-16T19:56:16.449Z,15.25
2022-11-16T19:58:43.848Z,15.29
2022-11-16T20:01:11.270Z,15.28
2022-11-16T20:03:38.913Z,15.22
2022-11-16T20:06:06.567Z,15.24
2022-11-16T20:08:34.085Z,15.25
2022-11-16T20:11:01.453Z,15.27
2022-11-16T20:13:28.979Z,15.26
2022-11-16T20:15:56.373Z,15.27
2022-11-16T20:18:23.770Z,15.26
2022-11-16T20:20:51.177Z,15.28
2022-11-16T20:23:19.661Z,15.25
2022-11-16T20:25:47.053Z,15.26
2022-11-16T20:28:14.472Z,15.26
2022-11-16T20:30:41.844Z,15.25
2022-11-16T20:33:09.228Z,15.25
2022-11-16T20:35:36.637Z,15.25
2022-11-16T20:38:03.939Z,15.24
2022-11-16T20:40:31.443Z,15.25
2022-11-16T20:43:00.425Z,15.25
2022-11-16T20:45:27.735Z,15.25
2022-11-16T20:47:54.967Z,15.25
2022-11-16T20:50:22.221Z,15.23
2022-11-16T20:52:52.693Z,15.23
2022-11-16T20:55:20.342Z,15.22
2022-11-16T20:57:47.524Z,15.22
2022-11-16T21:00:14.694Z,15.21
2022-11-16T21:02:41.956Z,15.22
2022-11-16T21:05:09.222Z,15.22
2022-11-16T21:07:36.525Z,15.18
2022-11-16T21:10:18.735Z,15.18
2022-11-16T21:13:04.375Z,15.19
2022-11-16T21:15:31.488Z,15.19
2022-11-16T21:17:58.726Z,15.15
2022-11-16T21:20:27.783Z,15.14
2022-11-16T21:22:55.379Z,15.13
2022-11-16T21:25:22.450Z,15.12
2022-11-16T21:27:49.584Z,15.12
2022-11-16T21:30:18.947Z,15.12
2022-11-16T21:32:46.025Z,15.10
2022-11-16T21:35:13.281Z,15.09
2022-11-16T21:37:40.355Z,15.10
2022-11-16T21:40:07.441Z,15.07
2022-11-16T21:42:34.521Z,15.06
2022-11-16T21:45:01.668Z,15.07
2022-11-16T21:47:29.203Z,15.05
2022-11-16T21:50:24.905Z,15.05
2022-11-16T21:52:43.408Z,15.05
2022-11-16T21:55:10.478Z,15.04
2022-11-16T21:57:37.655Z,15.00
2022-11-16T22:00:04.708Z,15.01
2022-11-16T22:02:31.806Z,15.04
2022-11-16T22:05:17.754Z,15.07
2022-11-16T22:07:44.828Z,15.05
2022-11-16T22:10:11.905Z,15.02
2022-11-16T22:12:39.000Z,15.04
2022-11-16T22:15:06.074Z,15.02
2022-11-16T22:17:33.156Z,15.02
2022-11-16T22:20:00.310Z,15.03
2022-11-16T22:22:27.423Z,15.02
2022-11-16T22:24:54.729Z,15.01
2022-11-16T22:27:21.890Z,15.00
2022-11-16T22:29:49.005Z,14.99
2022-11-16T22:32:16.137Z,14.99
2022-11-16T22:34:43.403Z,14.98
2022-11-16T22:37:10.474Z,14.98
2022-11-16T22:39:37.854Z,14.95
2022-11-16T22:42:05.079Z,14.93
2022-11-16T22:44:32.134Z,14.94
2022-11-16T22:46:59.198Z,14.94
2022-11-16T22:49:26.320Z,14.92
2022-11-16T22:51:53.449Z,14.93
2022-11-16T22:54:23.403Z,14.92
2022-11-16T22:56:54.466Z,14.92
2022-11-16T22:59:21.611Z,14.91
2022-11-16T23:01:48.668Z,14.91
2022-11-16T23:04:15.892Z,14.90
2022-11-16T23:06:42.961Z,14.89
2022-11-16T23:09:10.043Z,14.87
2022-11-16T23:11:55.832Z,14.88
2022-11-16T23:14:41.511Z,14.89
2022-11-16T23:17:08.571Z,14.87
2022-11-16T23:19:54.550Z,14.86
2022-11-16T23:22:40.673Z,14.86
2022-11-16T23:25:26.557Z,14.87
2022-11-16T23:27:54.300Z,14.87
2022-11-16T23:30:21.364Z,14.84
2022-11-16T23:32:48.429Z,14.82
2022-11-16T23:35:15.497Z,14.82
2022-11-16T23:37:42.566Z,14.81
2022-11-16T23:40:09.618Z,14.82
2022-11-16T23:43:09.096Z,14.81
2022-11-16T23:45:36.149Z,14.81
2022-11-16T23:48:03.253Z,14.83
2022-11-16T23:50:30.385Z,14.82
2022-11-16T23:52:57.462Z,14.82
2022-11-16T23:55:24.561Z,14.81
2022-11-16T23:57:51.683Z,14.81
